Monroe, WI

2:47 AM CDT on October 23, 2019 (GMT -0500)
Monroe Municipal

Weather History for KEFT - August, 2019

Change the Weather History Date:

Saturday, August 3, 2019

  Actual Average Record
Temperature  
Mean Temperature 76 °F -  
Max Temperature 85 °F 86 °F 95 °F (2012)
Min Temperature 66 °F 55 °F 55 °F (1966)
Cooling Degree Days 10    
Growing Degree Days 26 (Base 50)    
Moisture  
Dew Point 58 °F    
Average Humidity 57    
Maximum Humidity 85    
Minimum Humidity 42    
Precipitation  
Precipitation 0.00 in - - ()
Sea Level Pressure  
Sea Level Pressure 30.10 in    
Wind  
Wind Speed 4 mph (NW)    
Max Wind Speed 14 mph    
Max Gust Speed 16 mph    
Visibility 10 miles    
Events      
Averages and records for this station are not official NWS values.
T = Trace of Precipitation, MM = Missing Value Source: NWS Daily Summary

Daily Weather History Graph

Daily Weather History Graph

Search for Another Location

Airport or City:

Astronomy

Aug. 03, 2019 Rise Set
Actual Time 5:52 AM CDT 8:16 PM CDT
Civil Twilight 5:20 AM CDT 8:47 PM CDT
Nautical Twilight 4:40 AM CDT 9:27 PM CDT
Astronomical Twilight 3:56 AM CDT 10:11 PM CDT
Moon 8:48 AM CDT (8/3) 10:17 PM CDT (8/3)
Length of Visible Light 15h 27m
Length of Day
14h 24m
Waxing Crescent, 10% of the Moon is Illuminated
Aug 3
Waxing Crescent
Aug 7
First Quarter
Aug 15
Full
Aug 23
Last Quarter
Aug 30
New

Hourly Weather History & Observations

Time (CDT) Temp. Heat Index Dew Point Humidity Pressure Visibility Wind Dir Wind Speed Gust Speed Precip Events Conditions
12:15 AM 72.5 °F - 54.9 °F 54% 30.13 in 10.0 mi Calm Calm - N/A   Clear
12:35 AM 71.8 °F - 55.0 °F 55% 30.13 in 10.0 mi Calm Calm - N/A   Clear
12:55 AM 72.0 °F - 54.9 °F 55% 30.13 in 10.0 mi NW 3.5 mph - N/A   Clear
1:35 AM 71.6 °F - 54.5 °F 55% 30.13 in 10.0 mi North 4.6 mph - N/A   Clear
1:55 AM 66.9 °F - 55.9 °F 68% 30.13 in 10.0 mi ESE 3.5 mph - N/A   Clear
2:15 AM 66.9 °F - 54.5 °F 64% 30.13 in 10.0 mi SSE 3.5 mph - N/A   Clear
2:35 AM 66.7 °F - 54.9 °F 66% 30.13 in 10.0 mi South 3.5 mph - N/A   Clear
2:55 AM 68.4 °F - 54.0 °F 60% 30.12 in 10.0 mi South 3.5 mph - N/A   Clear
3:15 AM 68.0 °F - 53.6 °F 60% 30.12 in 10.0 mi South 4.6 mph - N/A   Clear
3:35 AM 68.2 °F - 53.2 °F 59% 30.12 in 10.0 mi SSW 5.8 mph - N/A   Clear
3:55 AM 67.5 °F - 51.6 °F 57% 30.12 in 10.0 mi SW 6.9 mph - N/A   Clear
4:15 AM 68.0 °F - 50.7 °F 54% 30.12 in 10.0 mi SW 6.9 mph - N/A   Clear
4:35 AM 68.0 °F - 51.4 °F 55% 30.12 in 10.0 mi SW 5.8 mph - N/A   Clear
4:55 AM 68.2 °F - 51.4 °F 55% 30.12 in 10.0 mi WSW 6.9 mph - N/A   Clear
5:15 AM 67.3 °F - 51.8 °F 58% 30.12 in 10.0 mi WSW 6.9 mph - N/A   Clear
5:35 AM 67.1 °F - 52.0 °F 58% 30.11 in 10.0 mi SW 5.8 mph - N/A   Clear
5:55 AM 67.3 °F - 51.8 °F 58% 30.12 in 10.0 mi SW 4.6 mph - N/A   Clear
6:15 AM 67.5 °F - 51.8 °F 57% 30.12 in 10.0 mi SW 4.6 mph - N/A   Clear
6:35 AM 68.2 °F - 51.8 °F 56% 30.13 in 10.0 mi WSW 5.8 mph - N/A   Unknown
6:55 AM 69.1 °F - 53.6 °F 58% 30.13 in 10.0 mi SW 4.6 mph - N/A   Clear
7:15 AM 70.5 °F - 54.5 °F 57% 30.13 in 10.0 mi West 3.5 mph - N/A   Clear
7:35 AM 70.9 °F - 55.0 °F 57% 30.13 in 10.0 mi NNW 3.5 mph - N/A   Clear
7:55 AM 73.0 °F - 55.0 °F 53% 30.13 in 10.0 mi Calm Calm - N/A   Clear
8:15 AM 73.6 °F - 54.7 °F 51% 30.13 in 10.0 mi Calm Calm - N/A   Clear
8:35 AM 74.3 °F - 55.4 °F 52% 30.13 in 10.0 mi Calm Calm - N/A   Clear
8:55 AM 75.6 °F - 56.3 °F 51% 30.13 in 10.0 mi Calm Calm - N/A   Clear
9:15 AM 76.6 °F - 57.6 °F 52% 30.13 in 10.0 mi North 4.6 mph - N/A   Clear
9:35 AM 77.7 °F - 58.6 °F 52% 30.13 in 10.0 mi North 4.6 mph - N/A   Clear
9:55 AM 78.3 °F - 57.2 °F 48% 30.13 in 10.0 mi NNE 3.5 mph - N/A   Clear
10:15 AM 79.5 °F - 57.9 °F 47% 30.13 in 10.0 mi NNE 5.8 mph - N/A   Clear
10:35 AM 79.7 °F - 58.1 °F 47% 30.13 in 10.0 mi NE 3.5 mph - N/A   Clear
10:55 AM 80.2 °F 80.5 °F 57.0 °F 45% 30.13 in 10.0 mi NNE 4.6 mph - N/A   Clear
11:15 AM 80.4 °F 81.0 °F 58.8 °F 48% 30.13 in 10.0 mi North 5.8 mph - N/A   Clear
11:35 AM 81.1 °F 81.8 °F 60.1 °F 49% 30.12 in 10.0 mi ENE 3.5 mph - N/A   Clear
11:55 AM 81.0 °F 81.6 °F 60.3 °F 49% 30.12 in 10.0 mi NNE 3.5 mph - N/A   Clear
12:15 PM 81.7 °F 82.2 °F 60.1 °F 48% 30.11 in 10.0 mi NNE 5.8 mph - N/A   Clear
12:35 PM 80.8 °F 81.4 °F 60.3 °F 49% 30.11 in 10.0 mi Calm Calm - N/A   Scattered Clouds
12:55 PM 82.0 °F 82.4 °F 59.7 °F 47% 30.11 in 10.0 mi NNE 4.6 mph - N/A   Scattered Clouds
1:15 PM 82.8 °F 82.8 °F 59.4 °F 45% 30.10 in 10.0 mi North 3.5 mph - N/A   Clear
1:35 PM 83.7 °F 83.6 °F 59.9 °F 44% 30.09 in 10.0 mi ESE 3.5 mph - N/A   Clear
1:55 PM 82.0 °F 82.4 °F 59.7 °F 47% 30.09 in 10.0 mi Calm Calm - N/A   Scattered Clouds
2:15 PM 82.2 °F 82.6 °F 60.1 °F 47% 30.08 in 10.0 mi NNE 3.5 mph - N/A   Mostly Cloudy
2:35 PM 81.7 °F 82.2 °F 60.1 °F 48% 30.08 in 10.0 mi Calm Calm - N/A   Mostly Cloudy
2:55 PM 84.4 °F 84.6 °F 60.8 °F 45% 30.07 in 10.0 mi South 3.5 mph - N/A   Scattered Clouds
3:15 PM 84.9 °F 84.6 °F 59.4 °F 42% 30.07 in 10.0 mi Calm Calm - N/A   Mostly Cloudy
3:35 PM 85.3 °F 85.0 °F 60.1 °F 42% 30.07 in 10.0 mi West 5.8 mph - N/A   Overcast
3:55 PM 84.9 °F 85.0 °F 60.8 °F 44% 30.06 in 10.0 mi SW 6.9 mph - N/A   Mostly Cloudy
4:15 PM 84.4 °F 84.6 °F 61.0 °F 45% 30.06 in 10.0 mi WSW 5.8 mph - N/A   Scattered Clouds
4:35 PM 82.9 °F 83.7 °F 61.9 °F 49% 30.06 in 10.0 mi SW 11.5 mph - N/A   Scattered Clouds
4:55 PM 83.8 °F 84.3 °F 61.3 °F 47% 30.06 in 10.0 mi SSW 6.9 mph - N/A   Mostly Cloudy
5:15 PM 83.3 °F 83.7 °F 61.0 °F 47% 30.06 in 10.0 mi WSW 6.9 mph - N/A   Scattered Clouds
5:35 PM 83.7 °F 83.9 °F 60.6 °F 46% 30.06 in 10.0 mi SW 9.2 mph - N/A   Scattered Clouds
5:55 PM 83.7 °F 83.9 °F 60.8 °F 46% 30.06 in 10.0 mi WSW 5.8 mph - N/A   Scattered Clouds
6:15 PM 83.3 °F 83.4 °F 59.9 °F 45% 30.06 in 10.0 mi WSW 4.6 mph - N/A   Clear
6:35 PM 82.0 °F 82.7 °F 61.3 °F 49% 30.06 in 10.0 mi ENE 9.2 mph 16.1 mph N/A   Mostly Cloudy
6:55 PM 75.9 °F - 62.2 °F 62% 30.06 in 10.0 mi ENE 4.6 mph - N/A   Overcast
7:15 PM 73.9 °F - 62.1 °F 66% 30.07 in 10.0 mi ENE 6.9 mph - N/A   Scattered Clouds
7:35 PM 73.4 °F - 62.2 °F 68% 30.06 in 10.0 mi ENE 5.8 mph - N/A   Clear
7:55 PM 73.4 °F - 62.4 °F 68% 30.06 in 10.0 mi East 5.8 mph - N/A   Clear
8:15 PM 72.5 °F - 63.0 °F 72% 30.06 in 10.0 mi ENE 3.5 mph - N/A   Clear
8:35 PM 71.8 °F - 63.1 °F 74% 30.06 in 10.0 mi Calm Calm - N/A   Clear
8:55 PM 71.8 °F - 63.1 °F 74% 30.06 in 10.0 mi Calm Calm - N/A   Clear
9:15 PM 71.2 °F - 63.5 °F 76% 30.07 in 10.0 mi Calm Calm - N/A   Clear
9:35 PM 71.1 °F - 63.5 °F 77% 30.07 in 10.0 mi Calm Calm - N/A   Clear
9:55 PM 70.5 °F - 63.3 °F 78% 30.08 in 10.0 mi NNE 13.8 mph - N/A   Clear
10:15 PM 68.5 °F - 63.0 °F 82% 30.10 in 10.0 mi NNE 10.4 mph - N/A   Clear
10:35 PM 67.5 °F - 62.8 °F 85% 30.10 in 10.0 mi NNE 8.1 mph - N/A   Clear
10:55 PM 67.1 °F - 62.6 °F 85% 30.11 in 10.0 mi North 9.2 mph - N/A   Clear
11:15 PM 67.3 °F - 62.6 °F 85% 30.10 in 10.0 mi North 9.2 mph - N/A   Clear
11:35 PM 67.1 °F - 62.1 °F 84% 30.09 in 10.0 mi NNW 5.8 mph - N/A   Clear
11:55 PM 67.1 °F - 61.9 °F 83% 30.08 in 10.0 mi Calm Calm - N/A   Clear